createdAt,value
2018-08-14T00:00:19.635Z,0.60
2018-08-14T00:02:47.881Z,0.67
2018-08-14T00:05:16.106Z,2.20
2018-08-14T00:07:44.601Z,1.20
2018-08-14T00:10:13.323Z,0.90
2018-08-14T00:12:41.527Z,1.07
2018-08-14T00:15:13.079Z,1.10
2018-08-14T00:17:41.655Z,0.87
2018-08-14T00:20:11.312Z,1.07
2018-08-14T00:22:39.974Z,0.97
2018-08-14T00:25:09.119Z,0.70
2018-08-14T00:27:38.154Z,1.63
2018-08-14T00:30:08.307Z,1.53
2018-08-14T00:32:36.525Z,1.17
2018-08-14T00:35:04.941Z,1.00
2018-08-14T00:37:33.125Z,1.20
2018-08-14T00:40:01.359Z,0.80
2018-08-14T00:42:29.619Z,1.20
2018-08-14T00:44:57.805Z,1.03
2018-08-14T00:47:26.018Z,1.40
2018-08-14T00:49:54.272Z,1.20
2018-08-14T00:52:22.494Z,1.00
2018-08-14T00:54:50.685Z,0.80
2018-08-14T00:57:18.865Z,1.03
2018-08-14T00:59:47.103Z,1.33
2018-08-14T01:02:15.344Z,0.80
2018-08-14T01:04:43.575Z,0.97
2018-08-14T01:07:11.784Z,1.07
2018-08-14T01:09:39.999Z,2.10
2018-08-14T01:12:08.218Z,1.10
2018-08-14T01:14:36.437Z,0.93
2018-08-14T01:17:04.683Z,1.50
2018-08-14T01:19:32.885Z,1.00
2018-08-14T01:22:01.203Z,1.00
2018-08-14T01:24:29.409Z,0.90
2018-08-14T01:26:57.649Z,0.77
2018-08-14T01:29:25.843Z,0.70
2018-08-14T01:31:54.109Z,1.00
2018-08-14T01:34:22.264Z,1.47
2018-08-14T01:36:50.442Z,1.03
2018-08-14T01:39:18.679Z,1.00
2018-08-14T01:41:46.865Z,0.93
2018-08-14T01:44:15.070Z,0.93
2018-08-14T01:46:43.262Z,1.03
2018-08-14T01:49:11.482Z,1.43
2018-08-14T01:51:39.702Z,0.70
2018-08-14T01:54:09.118Z,1.40
2018-08-14T01:56:37.400Z,0.90
2018-08-14T01:59:06.186Z,1.00
2018-08-14T02:01:34.385Z,1.10
2018-08-14T02:04:02.574Z,1.17
2018-08-14T02:06:30.983Z,1.47
2018-08-14T02:08:59.183Z,1.70
2018-08-14T02:11:28.409Z,1.70
2018-08-14T02:13:56.607Z,0.97
2018-08-14T02:16:24.786Z,1.17
2018-08-14T02:18:52.985Z,1.70
2018-08-14T02:21:21.193Z,1.27
2018-08-14T02:23:49.392Z,0.90
2018-08-14T02:26:17.617Z,1.23
2018-08-14T02:28:45.813Z,1.00
2018-08-14T02:31:14.046Z,1.23
2018-08-14T02:33:42.246Z,1.10
2018-08-14T02:36:10.683Z,0.93
2018-08-14T02:38:38.871Z,1.13
2018-08-14T02:41:07.089Z,0.83
2018-08-14T02:43:35.332Z,0.97
2018-08-14T02:46:03.542Z,1.43
2018-08-14T02:48:31.827Z,1.00
2018-08-14T02:51:00.036Z,1.03
2018-08-14T02:53:28.270Z,1.17
2018-08-14T02:55:56.507Z,0.87
2018-08-14T02:58:24.700Z,1.40
2018-08-14T03:00:53.336Z,1.73
2018-08-14T03:03:21.551Z,1.50
2018-08-14T03:05:49.754Z,1.17
2018-08-14T03:08:17.954Z,1.17
2018-08-14T03:10:46.161Z,1.00
2018-08-14T03:13:14.352Z,0.83
2018-08-14T03:15:42.548Z,0.80
2018-08-14T03:18:10.756Z,1.00
2018-08-14T03:20:39.570Z,0.97
2018-08-14T03:25:51.984Z,1.07
2018-08-14T03:28:20.204Z,1.13
2018-08-14T03:30:48.430Z,1.27
2018-08-14T03:33:16.648Z,1.17
2018-08-14T03:35:44.850Z,1.50
2018-08-14T03:38:13.072Z,1.00
2018-08-14T03:40:41.284Z,0.70
2018-08-14T03:43:09.522Z,1.33
2018-08-14T03:45:37.833Z,1.57
2018-08-14T03:48:06.458Z,1.40
2018-08-14T03:50:34.662Z,1.77
2018-08-14T03:53:02.885Z,1.50
2018-08-14T03:55:31.450Z,1.00
2018-08-14T03:57:59.786Z,1.70
2018-08-14T04:00:29.488Z,1.20
2018-08-14T04:02:58.237Z,0.80
2018-08-14T04:05:26.743Z,0.70
2018-08-14T04:07:55.219Z,2.10
2018-08-14T04:10:23.413Z,1.27
2018-08-14T04:12:51.633Z,0.87
2018-08-14T04:15:19.839Z,1.33
2018-08-14T04:17:48.032Z,1.30
2018-08-14T04:20:16.254Z,1.10
2018-08-14T04:22:44.448Z,1.20
2018-08-14T04:25:13.081Z,1.17
2018-08-14T04:27:41.328Z,1.40
2018-08-14T04:30:11.706Z,1.40
2018-08-14T04:32:40.104Z,1.20
2018-08-14T04:35:08.330Z,1.07
2018-08-14T04:37:36.525Z,0.90
2018-08-14T04:40:06.639Z,1.00
2018-08-14T04:42:34.862Z,1.67
2018-08-14T04:45:03.090Z,1.03
2018-08-14T04:47:31.334Z,1.07
2018-08-14T04:49:59.519Z,1.70
2018-08-14T04:52:27.766Z,0.90
2018-08-14T04:54:55.953Z,1.70
2018-08-14T04:57:24.149Z,1.00
2018-08-14T04:59:52.337Z,1.00
2018-08-14T05:02:20.649Z,1.10
2018-08-14T05:04:48.946Z,0.97
2018-08-14T05:07:17.170Z,1.27
2018-08-14T05:09:45.361Z,1.73
2018-08-14T05:12:13.592Z,1.80
2018-08-14T05:14:41.846Z,1.43
2018-08-14T05:17:10.023Z,1.40
2018-08-14T05:19:38.400Z,1.47
2018-08-14T05:22:06.644Z,1.40
2018-08-14T05:24:34.864Z,1.60
2018-08-14T05:27:03.350Z,2.33
2018-08-14T05:29:31.542Z,1.73
2018-08-14T05:31:59.751Z,1.20
2018-08-14T05:34:27.957Z,1.30
2018-08-14T05:36:56.139Z,1.50
2018-08-14T05:39:24.357Z,1.83
2018-08-14T05:41:52.616Z,1.50
2018-08-14T05:44:22.206Z,2.00
2018-08-14T05:46:50.426Z,1.63
2018-08-14T05:49:18.732Z,0.90
2018-08-14T05:51:47.928Z,1.30
2018-08-14T05:54:16.140Z,1.43
2018-08-14T05:56:45.442Z,1.23
2018-08-14T05:59:13.728Z,1.40
2018-08-14T06:01:42.441Z,1.37
2018-08-14T06:04:11.204Z,0.90
2018-08-14T06:06:39.558Z,1.53
2018-08-14T06:09:10.110Z,1.50
2018-08-14T06:11:38.374Z,1.50
2018-08-14T06:14:07.213Z,1.60
2018-08-14T06:16:35.421Z,2.20
2018-08-14T06:19:03.695Z,1.17
2018-08-14T06:21:31.921Z,1.30
2018-08-14T06:24:00.192Z,1.27
2018-08-14T06:26:28.440Z,1.60
2018-08-14T06:28:56.662Z,1.77
2018-08-14T06:31:24.879Z,1.07
2018-08-14T06:33:53.142Z,1.00
2018-08-14T06:36:21.527Z,1.47
2018-08-14T06:38:49.819Z,1.40
2018-08-14T06:41:18.307Z,1.63
2018-08-14T06:43:46.517Z,1.50
2018-08-14T06:46:14.751Z,1.13
2018-08-14T06:48:42.993Z,0.90
2018-08-14T06:51:11.206Z,1.87
2018-08-14T06:53:39.398Z,1.70
2018-08-14T06:56:07.625Z,1.55
2018-08-14T06:58:35.819Z,1.20
2018-08-14T07:01:04.047Z,1.33
2018-08-14T07:03:32.249Z,1.37
2018-08-14T07:06:00.487Z,1.50
2018-08-14T07:08:28.768Z,1.20
2018-08-14T07:10:56.937Z,1.57
2018-08-14T07:13:25.332Z,1.37
2018-08-14T07:15:53.551Z,1.20
2018-08-14T07:18:21.837Z,1.50
2018-08-14T07:20:50.031Z,2.10
2018-08-14T07:23:18.249Z,1.83
2018-08-14T07:25:46.457Z,2.00
2018-08-14T07:28:14.740Z,2.17
2018-08-14T07:30:43.003Z,1.50
2018-08-14T07:33:12.055Z,2.27
2018-08-14T07:35:40.255Z,1.53
2018-08-14T07:38:08.517Z,1.93
2018-08-14T07:40:36.763Z,1.67
2018-08-14T07:43:05.022Z,1.90
2018-08-14T07:45:33.653Z,1.67
2018-08-14T07:48:02.107Z,1.23
2018-08-14T07:50:30.322Z,1.50
2018-08-14T07:52:58.513Z,1.50
2018-08-14T07:55:26.763Z,1.67
2018-08-14T07:57:55.294Z,1.70
2018-08-14T08:00:23.705Z,1.77
2018-08-14T08:02:52.727Z,1.77
2018-08-14T08:05:21.380Z,1.33
2018-08-14T08:07:50.181Z,2.00
2018-08-14T08:10:18.621Z,2.20
2018-08-14T08:12:47.117Z,1.50
2018-08-14T08:15:16.377Z,1.40
2018-08-14T08:17:45.145Z,1.23
2018-08-14T08:20:26.238Z,1.43
2018-08-14T08:22:54.455Z,1.60
2018-08-14T08:25:22.967Z,2.12
2018-08-14T08:27:51.243Z,1.90
2018-08-14T08:30:19.447Z,1.60
2018-08-14T08:32:47.671Z,2.20
2018-08-14T08:35:15.945Z,2.67
2018-08-14T08:37:44.377Z,1.33
2018-08-14T08:40:13.167Z,2.80
2018-08-14T08:42:41.363Z,1.67
2018-08-14T08:45:10.258Z,1.90
2018-08-14T08:47:38.836Z,3.40
2018-08-14T08:50:09.280Z,2.43
2018-08-14T08:52:37.542Z,2.33
2018-08-14T08:55:05.795Z,2.00
2018-08-14T08:57:34.056Z,2.77
2018-08-14T09:00:02.299Z,1.27
2018-08-14T09:02:30.546Z,2.70
2018-08-14T09:04:58.750Z,1.80
2018-08-14T09:07:26.950Z,1.93
2018-08-14T09:09:55.144Z,1.93
2018-08-14T09:12:23.382Z,1.40
2018-08-14T09:14:51.652Z,1.70
2018-08-14T09:17:19.904Z,2.30
2018-08-14T09:19:48.212Z,2.13
2018-08-14T09:22:16.433Z,1.97
2018-08-14T09:24:44.640Z,1.97
2018-08-14T09:27:12.842Z,2.23
2018-08-14T09:29:41.029Z,1.40
2018-08-14T09:32:09.224Z,1.87
2018-08-14T09:34:37.426Z,1.40
2018-08-14T09:37:05.654Z,1.70
2018-08-14T09:39:33.858Z,2.13
2018-08-14T09:42:02.088Z,1.47
2018-08-14T09:44:30.321Z,2.17
2018-08-14T09:46:58.965Z,1.83
2018-08-14T09:49:27.170Z,2.63
2018-08-14T09:51:55.543Z,2.20
2018-08-14T09:54:23.816Z,2.10
2018-08-14T09:56:51.999Z,2.00
2018-08-14T09:59:20.214Z,2.10
2018-08-14T10:01:53.674Z,1.33
2018-08-14T10:04:26.193Z,1.93
2018-08-14T10:06:59.831Z,1.50
2018-08-14T10:09:28.022Z,1.80
2018-08-14T10:11:56.236Z,1.77
2018-08-14T10:14:29.762Z,1.70
2018-08-14T10:16:57.968Z,1.63
2018-08-14T10:19:26.207Z,2.40
2018-08-14T10:21:54.380Z,2.60
2018-08-14T10:24:22.666Z,2.17
2018-08-14T10:26:50.884Z,1.95
2018-08-14T10:29:19.068Z,1.70
2018-08-14T10:31:47.270Z,1.70
2018-08-14T10:34:15.494Z,1.83
2018-08-14T10:36:43.776Z,1.33
2018-08-14T10:39:11.990Z,1.37
2018-08-14T10:41:40.266Z,1.50
2018-08-14T10:44:08.528Z,1.57
2018-08-14T10:46:36.750Z,2.23
2018-08-14T10:49:05.021Z,1.70
2018-08-14T10:51:33.230Z,1.50
2018-08-14T10:54:01.654Z,1.90
2018-08-14T10:56:30.208Z,1.63
2018-08-14T10:58:58.404Z,1.50
2018-08-14T11:01:30.848Z,1.40
2018-08-14T11:03:59.074Z,1.20
2018-08-14T11:06:27.310Z,1.97
2018-08-14T11:08:55.542Z,1.30
2018-08-14T11:11:30.196Z,1.80
2018-08-14T11:13:59.070Z,1.47
2018-08-14T11:16:27.508Z,1.47
2018-08-14T11:18:55.634Z,1.30
2018-08-14T11:21:23.820Z,1.20
2018-08-14T11:23:52.022Z,1.23
2018-08-14T11:26:20.216Z,1.30
2018-08-14T11:28:48.416Z,1.50
2018-08-14T11:31:16.614Z,1.53
2018-08-14T11:33:44.832Z,2.00
2018-08-14T11:36:13.020Z,1.70
2018-08-14T11:38:41.270Z,1.50
2018-08-14T11:41:09.492Z,1.33
2018-08-14T11:43:37.716Z,1.37
2018-08-14T11:46:05.992Z,1.80
2018-08-14T11:48:34.186Z,1.50
2018-08-14T11:51:02.531Z,1.30
2018-08-14T11:53:30.690Z,1.83
2018-08-14T11:55:58.890Z,1.30
2018-08-14T11:58:27.126Z,1.20
2018-08-14T12:00:55.335Z,1.07
2018-08-14T12:03:23.526Z,1.13
2018-08-14T12:05:51.759Z,1.20
2018-08-14T12:08:19.947Z,1.00
2018-08-14T12:10:48.180Z,1.10
2018-08-14T12:13:16.511Z,1.10
2018-08-14T12:15:44.718Z,1.37
2018-08-14T12:18:13.011Z,1.40
2018-08-14T12:20:41.184Z,1.20
2018-08-14T12:23:09.385Z,0.70
2018-08-14T12:25:37.662Z,1.20
2018-08-14T12:28:05.965Z,1.10
2018-08-14T12:30:34.179Z,1.57
2018-08-14T12:33:02.469Z,1.10
2018-08-14T12:35:30.659Z,1.30
2018-08-14T12:37:59.155Z,1.17
2018-08-14T12:40:27.606Z,1.10
2018-08-14T12:42:55.869Z,1.00
2018-08-14T12:45:24.307Z,1.10
2018-08-14T12:47:53.269Z,1.20
2018-08-14T12:50:22.163Z,0.83
2018-08-14T12:52:50.388Z,1.83
2018-08-14T12:55:18.989Z,1.00
2018-08-14T12:57:47.618Z,0.80
2018-08-14T13:00:17.773Z,0.80
2018-08-14T13:02:46.011Z,1.33
2018-08-14T13:05:14.247Z,1.40
2018-08-14T13:07:42.452Z,0.97
2018-08-14T13:10:11.782Z,1.20
2018-08-14T13:12:40.547Z,0.97
2018-08-14T13:15:10.704Z,1.37
2018-08-14T13:17:39.049Z,1.00
2018-08-14T13:20:08.922Z,1.37
2018-08-14T13:22:37.188Z,1.23
2018-08-14T13:25:06.891Z,2.03
2018-08-14T13:27:35.357Z,0.90
2018-08-14T13:30:03.899Z,1.00
2018-08-14T13:32:32.246Z,1.00
2018-08-14T13:35:00.448Z,0.73
2018-08-14T13:37:28.812Z,1.13
2018-08-14T13:39:57.053Z,1.13
2018-08-14T13:42:25.261Z,1.10
2018-08-14T13:44:53.601Z,1.13
2018-08-14T13:47:21.803Z,1.33
2018-08-14T13:49:50.119Z,1.30
2018-08-14T13:52:18.777Z,1.02
2018-08-14T13:54:47.895Z,1.20
2018-08-14T13:57:16.124Z,0.83
2018-08-14T13:59:44.381Z,0.90
2018-08-14T14:02:12.611Z,0.90
2018-08-14T14:04:40.851Z,1.20
2018-08-14T14:07:09.826Z,0.83
2018-08-14T14:09:38.102Z,1.40
2018-08-14T14:12:06.276Z,1.10
2018-08-14T14:14:34.495Z,1.30
2018-08-14T14:17:02.713Z,1.13
2018-08-14T14:19:31.150Z,1.27
2018-08-14T14:21:59.345Z,1.00
2018-08-14T14:24:27.649Z,0.93
2018-08-14T14:26:55.840Z,0.80
2018-08-14T14:29:24.067Z,1.20
2018-08-14T14:31:52.276Z,1.30
2018-08-14T14:34:20.474Z,1.37
2018-08-14T14:36:48.707Z,1.50
2018-08-14T14:39:16.893Z,1.23
2018-08-14T14:41:45.093Z,1.33
2018-08-14T14:44:13.285Z,1.60
2018-08-14T14:46:41.481Z,1.67
2018-08-14T14:49:09.693Z,1.30
2018-08-14T14:51:37.935Z,1.77
2018-08-14T14:54:06.157Z,1.77
2018-08-14T14:56:34.371Z,2.00
2018-08-14T14:59:02.599Z,1.70
2018-08-14T15:01:30.792Z,0.97
2018-08-14T15:03:59.016Z,1.77
2018-08-14T15:06:27.207Z,1.50
2018-08-14T15:08:55.439Z,1.70
2018-08-14T15:11:23.637Z,2.17
2018-08-14T15:13:51.853Z,0.90
2018-08-14T15:16:20.083Z,1.10
2018-08-14T15:18:48.305Z,1.17
2018-08-14T15:21:16.475Z,1.20
2018-08-14T15:23:44.703Z,1.10
2018-08-14T15:26:12.925Z,1.20
2018-08-14T15:29:04.450Z,1.40
2018-08-14T15:31:33.695Z,1.40
2018-08-14T15:34:02.549Z,1.07
2018-08-14T15:36:31.859Z,1.30
2018-08-14T15:39:01.503Z,1.50
2018-08-14T15:41:30.792Z,1.53
2018-08-14T15:43:59.801Z,1.10
2018-08-14T15:46:28.828Z,1.42
2018-08-14T15:48:57.072Z,1.30
2018-08-14T15:51:25.275Z,2.10
2018-08-14T15:53:53.495Z,1.10
2018-08-14T15:56:21.931Z,2.30
2018-08-14T15:58:50.299Z,1.47
2018-08-14T16:01:18.591Z,1.20
2018-08-14T16:03:46.803Z,1.13
2018-08-14T16:06:15.128Z,1.63
2018-08-14T16:08:43.546Z,1.10
2018-08-14T16:11:11.768Z,1.60
2018-08-14T16:13:39.974Z,1.20
2018-08-14T16:16:08.184Z,1.47
2018-08-14T16:18:36.388Z,1.60
2018-08-14T16:21:04.586Z,1.20
2018-08-14T16:23:32.962Z,1.27
2018-08-14T16:26:01.175Z,1.30
2018-08-14T16:28:29.391Z,1.90
2018-08-14T16:30:57.642Z,1.43
2018-08-14T16:33:25.852Z,1.70
2018-08-14T16:35:54.046Z,1.70
2018-08-14T16:38:22.217Z,1.33
2018-08-14T16:40:50.459Z,1.30
2018-08-14T16:43:18.646Z,1.50
2018-08-14T16:45:46.946Z,1.27
2018-08-14T16:48:15.180Z,1.73
2018-08-14T16:50:43.378Z,1.40
2018-08-14T16:53:11.630Z,2.00
2018-08-14T16:55:40.154Z,1.33
2018-08-14T16:58:08.378Z,1.30
2018-08-14T17:00:38.716Z,1.57
2018-08-14T17:03:09.228Z,1.63
2018-08-14T17:05:37.602Z,1.50
2018-08-14T17:08:06.277Z,1.77
2018-08-14T17:10:34.682Z,1.30
2018-08-14T17:13:02.870Z,1.50
2018-08-14T17:15:31.099Z,1.70
2018-08-14T17:17:59.556Z,1.83
2018-08-14T17:20:26.762Z,1.40
2018-08-14T17:22:54.950Z,1.70
2018-08-14T17:25:23.174Z,1.40
2018-08-14T17:27:53.772Z,1.97
2018-08-14T17:30:27.224Z,1.83
2018-08-14T17:32:56.082Z,1.70
2018-08-14T17:35:24.324Z,1.30
2018-08-14T17:37:53.587Z,1.63
2018-08-14T17:40:23.067Z,1.77
2018-08-14T17:42:51.277Z,1.83
2018-08-14T17:45:35.045Z,1.70
2018-08-14T17:48:04.495Z,1.57
2018-08-14T17:50:33.219Z,1.40
2018-08-14T17:53:01.448Z,1.40
2018-08-14T17:55:29.702Z,1.47
2018-08-14T17:57:58.031Z,1.90
2018-08-14T18:00:28.864Z,1.80
2018-08-14T18:02:58.559Z,2.23
2018-08-14T18:05:26.753Z,3.00
2018-08-14T18:07:55.271Z,1.87
2018-08-14T18:10:24.091Z,3.60
2018-08-14T18:12:52.301Z,2.90
2018-08-14T18:15:21.390Z,2.80
2018-08-14T18:17:49.613Z,2.57
2018-08-14T18:20:19.183Z,3.90
2018-08-14T18:22:47.394Z,4.00
2018-08-14T18:25:16.760Z,3.37
2018-08-14T18:27:45.429Z,3.73
2018-08-14T18:30:14.853Z,3.43
2018-08-14T18:32:43.071Z,4.63
2018-08-14T18:35:11.618Z,3.57
2018-08-14T18:37:40.201Z,3.63
2018-08-14T18:40:13.250Z,3.20
2018-08-14T18:42:41.741Z,4.07
2018-08-14T18:45:11.736Z,3.90
2018-08-14T18:47:40.186Z,3.60
2018-08-14T18:50:09.182Z,3.43
2018-08-14T18:52:37.672Z,3.73
2018-08-14T18:55:06.688Z,5.03
2018-08-14T18:57:34.906Z,3.50
2018-08-14T19:00:03.145Z,5.67
2018-08-14T19:02:31.348Z,3.60
2018-08-14T19:04:59.549Z,3.73
2018-08-14T19:07:27.781Z,3.80
2018-08-14T19:09:56.017Z,5.37
2018-08-14T19:12:24.222Z,4.40
2018-08-14T19:14:52.418Z,3.53
2018-08-14T19:17:20.643Z,4.10
2018-08-14T19:19:49.057Z,5.07
2018-08-14T19:22:17.349Z,4.83
2018-08-14T19:24:45.696Z,3.37
2018-08-14T19:27:13.932Z,4.13
2018-08-14T19:29:42.143Z,3.30
2018-08-14T19:32:10.335Z,4.23
2018-08-14T19:34:38.541Z,4.20
2018-08-14T19:37:06.751Z,3.73
2018-08-14T19:39:34.996Z,4.17
2018-08-14T19:42:03.244Z,3.93
2018-08-14T19:44:31.425Z,4.00
2018-08-14T19:46:59.704Z,3.93
2018-08-14T19:49:27.864Z,3.83
2018-08-14T19:51:56.095Z,4.53
2018-08-14T19:54:24.294Z,3.60
2018-08-14T19:56:52.495Z,3.70
2018-08-14T19:59:20.781Z,3.80
2018-08-14T20:01:48.980Z,3.47
2018-08-14T20:04:17.211Z,3.43
2018-08-14T20:06:45.434Z,4.33
2018-08-14T20:09:13.909Z,3.73
2018-08-14T20:11:42.116Z,3.97
2018-08-14T20:14:10.320Z,2.70
2018-08-14T20:16:40.858Z,3.80
2018-08-14T20:19:09.100Z,3.83
2018-08-14T20:21:37.748Z,3.90
2018-08-14T20:24:06.028Z,3.90
2018-08-14T20:26:34.282Z,3.40
2018-08-14T20:29:02.576Z,4.30
2018-08-14T20:31:30.788Z,3.47
2018-08-14T20:33:58.994Z,4.43
2018-08-14T20:36:27.220Z,4.50
2018-08-14T20:38:55.442Z,3.60
2018-08-14T20:41:23.622Z,3.17
2018-08-14T20:43:51.859Z,5.27
2018-08-14T20:46:20.072Z,3.57
2018-08-14T20:48:48.309Z,3.70
2018-08-14T20:51:16.519Z,4.30
2018-08-14T20:53:44.738Z,5.13
2018-08-14T20:56:12.962Z,3.43
2018-08-14T20:58:41.208Z,4.20
2018-08-14T21:01:09.415Z,3.57
2018-08-14T21:03:37.645Z,3.50
2018-08-14T21:06:05.859Z,5.30
2018-08-14T21:08:34.056Z,4.60
2018-08-14T21:11:02.283Z,4.60
2018-08-14T21:13:30.483Z,3.80
2018-08-14T21:16:04.052Z,4.40
2018-08-14T21:18:32.250Z,4.10
2018-08-14T21:21:00.450Z,4.10
2018-08-14T21:23:28.661Z,4.83
2018-08-14T21:25:56.955Z,4.53
2018-08-14T21:28:25.168Z,4.70
2018-08-14T21:30:53.457Z,4.17
2018-08-14T21:33:21.671Z,4.80
2018-08-14T21:35:49.891Z,5.30
2018-08-14T21:38:18.149Z,4.63
2018-08-14T21:40:46.344Z,4.93
2018-08-14T21:43:14.554Z,4.10
2018-08-14T21:45:42.757Z,4.73
2018-08-14T21:48:10.969Z,5.10
2018-08-14T21:50:39.163Z,4.70
2018-08-14T21:53:07.490Z,5.60
2018-08-14T21:55:35.703Z,5.80
2018-08-14T21:58:04.086Z,5.10
2018-08-14T22:00:44.705Z,4.90
2018-08-14T22:03:12.898Z,4.63
2018-08-14T22:05:41.118Z,5.07
2018-08-14T22:08:09.420Z,4.73
2018-08-14T22:10:37.630Z,5.30
2018-08-14T22:13:05.834Z,5.77
2018-08-14T22:15:34.038Z,5.47
2018-08-14T22:18:02.245Z,5.43
2018-08-14T22:20:30.470Z,4.60
2018-08-14T22:22:58.671Z,6.23
2018-08-14T22:25:26.975Z,5.27
2018-08-14T22:27:55.679Z,5.00
2018-08-14T22:30:23.941Z,5.93
2018-08-14T22:32:52.197Z,5.73
2018-08-14T22:35:20.387Z,5.63
2018-08-14T22:37:48.637Z,6.07
2018-08-14T22:40:17.019Z,7.67
2018-08-14T22:42:45.319Z,5.53
2018-08-14T22:45:13.499Z,4.67
2018-08-14T22:47:41.893Z,5.37
2018-08-14T22:50:10.371Z,5.43
2018-08-14T22:52:39.053Z,5.53
2018-08-14T22:55:08.468Z,4.97
2018-08-14T22:57:36.650Z,5.87
2018-08-14T23:00:05.925Z,5.23
2018-08-14T23:02:34.107Z,5.20
2018-08-14T23:05:02.306Z,6.67
2018-08-14T23:07:30.537Z,6.10
2018-08-14T23:09:58.748Z,5.10
2018-08-14T23:12:26.951Z,6.90
2018-08-14T23:14:55.174Z,6.73
2018-08-14T23:17:23.367Z,5.00
2018-08-14T23:19:51.587Z,5.30
2018-08-14T23:22:19.792Z,5.60
2018-08-14T23:24:48.008Z,5.90
2018-08-14T23:27:16.253Z,6.43
2018-08-14T23:29:44.501Z,7.23
2018-08-14T23:32:12.739Z,4.87
2018-08-14T23:34:41.058Z,6.03
2018-08-14T23:37:10.076Z,5.47
2018-08-14T23:39:38.276Z,6.10
2018-08-14T23:42:06.486Z,6.70
2018-08-14T23:44:34.669Z,6.07
2018-08-14T23:47:02.841Z,6.80
2018-08-14T23:49:31.085Z,5.60
2018-08-14T23:51:59.303Z,5.07
2018-08-14T23:54:27.511Z,5.77
2018-08-14T23:56:55.691Z,6.70
2018-08-14T23:59:23.931Z,4.50
